createdAt,value
2023-05-10T06:23:10.007Z,98400.13
2023-05-10T06:25:38.289Z,98411.16
2023-05-10T06:28:05.668Z,98394.69
2023-05-10T06:30:33.080Z,98408.06
2023-05-10T06:33:00.513Z,98405.69
2023-05-10T06:35:27.985Z,98403.78
2023-05-10T06:37:56.294Z,98395.25
2023-05-10T06:40:23.740Z,98410.53
2023-05-10T06:42:51.313Z,98417.47
2023-05-10T06:45:19.045Z,98411.25
2023-05-10T06:47:46.925Z,98408.78
2023-05-10T06:50:14.464Z,98406.88
2023-05-10T06:52:44.162Z,98406.78
2023-05-10T06:55:11.811Z,98397.56
2023-05-10T06:57:39.239Z,98403.31
2023-05-10T07:00:08.274Z,98416.66
2023-05-10T07:02:35.793Z,98412.78
2023-05-10T07:05:03.746Z,98414.13
2023-05-10T07:07:31.277Z,98417.00
2023-05-10T07:09:59.241Z,98408.91
2023-05-10T07:12:27.198Z,98419.41
2023-05-10T07:14:54.665Z,98417.50
2023-05-10T07:17:22.397Z,98414.63
2023-05-10T07:19:50.022Z,98414.63
2023-05-10T07:22:18.086Z,98426.19
2023-05-10T07:24:46.555Z,98419.06
2023-05-10T07:27:14.436Z,98426.06
2023-05-10T07:29:41.945Z,98425.06
2023-05-10T07:32:09.467Z,98415.53
2023-05-10T07:34:37.015Z,98418.06
2023-05-10T07:37:04.466Z,98427.06
2023-05-10T07:39:31.890Z,98414.75
2023-05-10T07:41:59.253Z,98421.19
2023-05-10T07:44:26.986Z,98420.44
2023-05-10T07:46:54.435Z,98425.59
2023-05-10T07:49:21.842Z,98425.28
2023-05-10T07:51:49.853Z,98415.09
2023-05-10T07:54:17.524Z,98431.69
2023-05-10T07:56:48.413Z,98428.16
2023-05-10T07:59:19.185Z,98444.59
2023-05-10T08:01:46.807Z,98434.53
2023-05-10T08:04:14.290Z,98445.44
2023-05-10T08:06:42.023Z,98434.97
2023-05-10T08:09:10.523Z,98442.09
2023-05-10T08:11:38.101Z,98444.50
2023-05-10T08:14:05.734Z,98445.00
2023-05-10T08:16:33.620Z,98442.22
2023-05-10T08:19:01.157Z,98442.88
2023-05-10T08:21:28.660Z,98439.31
2023-05-10T08:23:56.118Z,98433.56
2023-05-10T08:26:23.577Z,98450.97
2023-05-10T08:28:51.814Z,98428.16
2023-05-10T08:31:19.407Z,98444.94
2023-05-10T08:33:46.871Z,98440.22
2023-05-10T08:36:16.316Z,98433.22
2023-05-10T08:38:43.688Z,98454.25
2023-05-10T08:41:12.228Z,98436.84
2023-05-10T08:43:42.652Z,98453.28
2023-05-10T08:46:11.811Z,98451.13
2023-05-10T08:48:39.956Z,98450.38
2023-05-10T08:51:09.281Z,98444.84
2023-05-10T08:53:38.637Z,98448.25
2023-05-10T08:56:07.246Z,98449.09
2023-05-10T08:58:34.782Z,98445.78
2023-05-10T09:01:03.014Z,98442.50
2023-05-10T09:03:33.439Z,98453.72
2023-05-10T09:06:00.875Z,98450.47
2023-05-10T09:08:28.937Z,98444.50
2023-05-10T09:10:57.603Z,98459.81
2023-05-10T09:13:25.863Z,98450.16
2023-05-10T09:15:54.053Z,98450.31
2023-05-10T09:18:21.569Z,98449.25
2023-05-10T09:20:50.563Z,98451.50
2023-05-10T09:23:17.958Z,98451.56
2023-05-10T09:25:45.380Z,98454.75
2023-05-10T09:28:13.118Z,98447.56
2023-05-10T09:30:41.460Z,98442.03
2023-05-10T09:33:09.002Z,98447.81
2023-05-10T09:35:37.192Z,98435.94
2023-05-10T09:38:06.554Z,98444.16
2023-05-10T09:40:34.360Z,98444.25
2023-05-10T09:43:09.157Z,98433.38
2023-05-10T09:45:38.952Z,98421.63
2023-05-10T09:48:07.592Z,98423.16
2023-05-10T09:50:35.510Z,98419.88
2023-05-10T09:53:04.966Z,98422.78
2023-05-10T09:55:47.775Z,98416.41
2023-05-10T09:58:15.933Z,98412.97
2023-05-10T10:00:49.047Z,98424.00
2023-05-10T10:03:21.372Z,98433.91
2023-05-10T10:05:49.942Z,98419.34
2023-05-10T10:08:18.770Z,98427.41
2023-05-10T10:10:47.252Z,98415.25
2023-05-10T10:13:16.562Z,98426.72
2023-05-10T10:15:48.720Z,98422.44
2023-05-10T10:18:16.746Z,98402.66
2023-05-10T10:20:44.399Z,98420.06
2023-05-10T10:23:11.859Z,98416.19
2023-05-10T10:25:40.001Z,98413.09
2023-05-10T10:29:09.232Z,98405.53
2023-05-10T10:32:29.633Z,98416.22
2023-05-10T10:34:57.445Z,98410.22
2023-05-10T10:37:41.935Z,98416.16
2023-05-10T10:40:35.007Z,98409.84
2023-05-10T10:43:30.445Z,98404.75
2023-05-10T10:46:19.355Z,98399.22
2023-05-10T10:49:11.536Z,98408.31
2023-05-10T10:51:40.796Z,98404.72
2023-05-10T10:54:12.770Z,98396.84
2023-05-10T10:56:40.148Z,98401.19
2023-05-10T10:59:10.094Z,98392.88
2023-05-10T11:01:37.529Z,98404.31
2023-05-10T11:04:05.038Z,98405.41
2023-05-10T11:06:37.418Z,98406.69
2023-05-10T11:09:13.547Z,98400.13
2023-05-10T11:11:56.517Z,98401.19
2023-05-10T11:14:24.439Z,98401.06
2023-05-10T11:16:52.402Z,98402.50
2023-05-10T11:19:20.832Z,98390.69
2023-05-10T11:22:14.874Z,98401.53
2023-05-10T11:24:57.053Z,98404.44
2023-05-10T11:27:24.542Z,98390.00
2023-05-10T11:29:54.973Z,98389.16
2023-05-10T11:32:22.696Z,98387.22
2023-05-10T11:34:50.226Z,98399.22
2023-05-10T11:37:19.562Z,98401.56
2023-05-10T11:39:50.720Z,98399.97
2023-05-10T11:42:18.774Z,98401.59
2023-05-10T11:44:48.905Z,98402.03
2023-05-10T11:47:16.844Z,98392.47
2023-05-10T11:49:47.111Z,98393.94
2023-05-10T11:52:14.495Z,98396.03
2023-05-10T11:54:56.383Z,98405.47
2023-05-10T11:57:29.624Z,98397.47
2023-05-10T11:59:59.032Z,98401.06
2023-05-10T12:02:26.697Z,98397.13
2023-05-10T12:04:56.097Z,98396.38
2023-05-10T12:07:23.714Z,98401.16
2023-05-10T12:10:17.084Z,98396.34
2023-05-10T12:12:51.372Z,98405.88
2023-05-10T12:15:23.099Z,98402.72
2023-05-10T12:17:52.303Z,98404.34
2023-05-10T12:20:28.584Z,98405.94
2023-05-10T12:23:00.810Z,98409.03
2023-05-10T12:25:36.925Z,98409.41
2023-05-10T12:28:09.611Z,98420.25
2023-05-10T12:30:38.900Z,98412.25
2023-05-10T12:33:14.484Z,98419.47
2023-05-10T12:35:54.532Z,98406.66
2023-05-10T12:38:43.327Z,98388.88
2023-05-10T12:41:17.709Z,98404.31
2023-05-10T12:43:49.248Z,98407.44
2023-05-10T12:46:18.844Z,98412.19
2023-05-10T12:48:48.481Z,98401.59
2023-05-10T12:51:18.419Z,98409.28
2023-05-10T12:53:49.369Z,98412.59
2023-05-10T12:56:17.080Z,98399.56
2023-05-10T12:58:49.170Z,98398.19
2023-05-10T13:01:16.938Z,98407.69
2023-05-10T13:03:45.000Z,98408.16
2023-05-10T13:06:14.496Z,98388.03
2023-05-10T13:08:41.911Z,98401.03
2023-05-10T13:11:09.379Z,98408.22
2023-05-10T13:13:36.794Z,98408.66
2023-05-10T13:16:04.407Z,98404.25
2023-05-10T13:18:32.093Z,98417.78
2023-05-10T13:20:59.602Z,98405.88
2023-05-10T13:23:27.076Z,98408.28
2023-05-10T13:25:54.479Z,98407.50
2023-05-10T13:28:21.894Z,98407.53
2023-05-10T13:30:49.316Z,98406.75
2023-05-10T13:33:16.971Z,98414.69
2023-05-10T13:35:45.082Z,98398.00
2023-05-10T13:38:13.072Z,98395.91
2023-05-10T13:40:40.597Z,98391.41
2023-05-10T13:43:07.986Z,98391.03
2023-05-10T13:45:35.401Z,98400.88
2023-05-10T13:48:02.858Z,98397.88
2023-05-10T13:50:30.901Z,98387.00
2023-05-10T13:52:58.711Z,98396.09
2023-05-10T13:55:26.320Z,98381.13
2023-05-10T13:57:53.753Z,98384.06
2023-05-10T14:00:21.550Z,98377.50
2023-05-10T14:02:49.175Z,98382.16
2023-05-10T14:05:18.751Z,98374.84
2023-05-10T14:07:46.672Z,98376.00
2023-05-10T14:10:14.135Z,98375.50
2023-05-10T14:12:41.578Z,98385.13
2023-05-10T14:15:11.553Z,98375.03
2023-05-10T14:17:39.039Z,98380.63
2023-05-10T14:20:08.203Z,98372.38
2023-05-10T14:22:36.486Z,98371.16
2023-05-10T14:25:04.455Z,98376.31
2023-05-10T14:27:32.675Z,98371.97
2023-05-10T14:30:00.230Z,98361.56
2023-05-10T14:32:28.959Z,98350.81
2023-05-10T14:34:56.792Z,98359.25
2023-05-10T14:37:24.200Z,98362.00
2023-05-10T14:39:51.604Z,98356.59
2023-05-10T14:42:19.033Z,98359.41
2023-05-10T14:44:46.481Z,98369.81
2023-05-10T14:47:13.864Z,98357.44
2023-05-10T14:49:41.937Z,98357.81
2023-05-10T14:52:09.395Z,98356.88
2023-05-10T14:54:36.929Z,98355.16
2023-05-10T14:57:04.356Z,98358.63
2023-05-10T14:59:31.735Z,98349.84
2023-05-10T15:02:00.213Z,98348.69
2023-05-10T15:04:28.519Z,98349.50
2023-05-10T15:07:00.576Z,98348.06
2023-05-10T15:09:28.846Z,98346.25
2023-05-10T15:11:56.951Z,98350.25
2023-05-10T15:14:24.870Z,98354.06
2023-05-10T15:16:52.305Z,98371.88
2023-05-10T15:19:20.716Z,98356.75
2023-05-10T15:21:48.424Z,98359.22
2023-05-10T15:24:15.977Z,98365.03
2023-05-10T15:26:43.407Z,98365.09
2023-05-10T15:29:10.837Z,98365.75
2023-05-10T15:31:40.636Z,98357.53
2023-05-10T15:34:08.052Z,98372.91
2023-05-10T15:36:35.969Z,98369.06
2023-05-10T15:39:04.756Z,98368.03
2023-05-10T15:41:33.814Z,98375.69
2023-05-10T15:44:01.802Z,98380.44
2023-05-10T15:46:30.600Z,98384.09
2023-05-10T15:49:01.197Z,98381.16
2023-05-10T15:51:28.693Z,98371.66
2023-05-10T15:54:06.498Z,98380.94
2023-05-10T15:56:35.335Z,98384.38
2023-05-10T15:59:03.899Z,98392.63
2023-05-10T16:01:32.973Z,98393.38
2023-05-10T16:04:01.519Z,98394.41
2023-05-10T16:06:28.990Z,98394.84
2023-05-10T16:08:56.518Z,98409.94
2023-05-10T16:11:23.958Z,98409.19
2023-05-10T16:13:51.630Z,98411.09
2023-05-10T16:16:19.136Z,98411.03
2023-05-10T16:18:46.702Z,98409.56
2023-05-10T16:21:14.198Z,98415.97
2023-05-10T16:23:41.750Z,98419.19
2023-05-10T16:26:09.172Z,98425.59
2023-05-10T16:28:37.395Z,98413.41
2023-05-10T16:31:04.845Z,98427.41
2023-05-10T16:33:32.384Z,98428.63
2023-05-10T16:35:59.869Z,98413.25
2023-05-10T16:38:27.655Z,98403.69
2023-05-10T16:40:56.573Z,98418.22
2023-05-10T16:43:26.032Z,98417.06
2023-05-10T16:45:54.142Z,98417.88
2023-05-10T16:48:21.641Z,98411.41
2023-05-10T16:50:49.123Z,98420.88
2023-05-10T16:53:16.601Z,98410.41
2023-05-10T16:55:44.104Z,98422.97
2023-05-10T16:58:11.488Z,98417.75
2023-05-10T17:00:38.874Z,98413.19
2023-05-10T17:03:06.387Z,98413.31
2023-05-10T17:05:33.844Z,98406.25
2023-05-10T17:08:01.359Z,98406.94
2023-05-10T17:10:28.784Z,98407.84
2023-05-10T17:12:56.166Z,98411.78
2023-05-10T17:15:24.066Z,98414.19
2023-05-10T17:17:52.060Z,98409.81
2023-05-10T17:20:19.719Z,98410.22
2023-05-10T17:22:47.199Z,98407.38
2023-05-10T17:25:14.796Z,98407.53
2023-05-10T17:27:42.936Z,98415.88
2023-05-10T17:30:11.385Z,98416.28
2023-05-10T17:32:38.911Z,98414.63
2023-05-10T17:35:07.531Z,98412.25
2023-05-10T17:37:34.921Z,98406.69
2023-05-10T17:40:04.024Z,98411.38
2023-05-10T17:42:31.465Z,98421.81
2023-05-10T17:44:59.023Z,98416.25
2023-05-10T17:47:26.478Z,98414.63
2023-05-10T17:49:53.958Z,98413.88
2023-05-10T17:52:21.515Z,98417.88
2023-05-10T17:54:48.918Z,98413.50
2023-05-10T17:57:16.316Z,98413.50
2023-05-10T17:59:43.753Z,98413.06
2023-05-10T18:02:11.156Z,98421.81
2023-05-10T18:04:41.224Z,98415.88
2023-05-10T18:07:10.122Z,98421.81
2023-05-10T18:09:37.514Z,98421.00
2023-05-10T18:12:06.092Z,98421.03
2023-05-10T18:14:40.545Z,98418.25
2023-05-10T18:17:09.686Z,98427.38
2023-05-10T18:19:37.409Z,98413.38
2023-05-10T18:22:05.508Z,98415.41
2023-05-10T18:24:39.534Z,98432.91
2023-05-10T18:27:09.298Z,98435.31
2023-05-10T18:29:37.270Z,98440.47
2023-05-10T18:32:05.441Z,98429.78
2023-05-10T18:34:32.815Z,98434.94
2023-05-10T18:37:00.394Z,98437.69
2023-05-10T18:39:27.819Z,98440.50
2023-05-10T18:41:55.871Z,98433.72
2023-05-10T18:44:26.478Z,98450.03
2023-05-10T18:46:54.393Z,98441.63
2023-05-10T18:49:21.869Z,98444.34
2023-05-10T18:51:49.309Z,98444.75
2023-05-10T18:54:16.901Z,98447.19
2023-05-10T18:56:45.350Z,98455.97
2023-05-10T18:59:13.600Z,98455.53
2023-05-10T19:01:41.913Z,98458.69
2023-05-10T19:04:09.446Z,98453.50
2023-05-10T19:06:37.136Z,98448.34
2023-05-10T19:09:04.732Z,98461.47
2023-05-10T19:11:32.312Z,98461.44
2023-05-10T19:13:59.709Z,98467.41
2023-05-10T19:16:29.888Z,98474.16
2023-05-10T19:18:57.663Z,98484.78
2023-05-10T19:21:25.835Z,98474.97
2023-05-10T19:23:53.689Z,98498.69
2023-05-10T19:26:22.581Z,98492.31
2023-05-10T19:28:54.485Z,98491.59
2023-05-10T19:31:22.478Z,98498.03
2023-05-10T19:33:50.005Z,98498.75
2023-05-10T19:36:17.420Z,98503.50
2023-05-10T19:38:44.851Z,98504.69
2023-05-10T19:41:13.031Z,98492.75
2023-05-10T19:43:41.950Z,98509.81
2023-05-10T19:46:09.906Z,98500.31
2023-05-10T19:48:37.532Z,98508.59
2023-05-10T19:51:08.499Z,98511.72
2023-05-10T19:53:37.820Z,98510.03
2023-05-10T19:56:07.247Z,98507.31
2023-05-10T19:58:35.026Z,98509.69
2023-05-10T20:01:02.824Z,98520.84
2023-05-10T20:03:30.476Z,98514.00
2023-05-10T20:05:57.939Z,98508.44
2023-05-10T20:08:25.807Z,98510.97
2023-05-10T20:10:53.301Z,98505.94
2023-05-10T20:13:20.788Z,98515.06
2023-05-10T20:15:49.095Z,98514.78
2023-05-10T20:18:16.685Z,98514.34
2023-05-10T20:20:44.163Z,98514.34
2023-05-10T20:23:11.667Z,98511.44
2023-05-10T20:25:39.629Z,98505.66
2023-05-10T20:28:08.556Z,98522.72
2023-05-10T20:30:36.151Z,98528.59
2023-05-10T20:33:04.376Z,98514.31
2023-05-10T20:35:33.042Z,98508.66
2023-05-10T20:38:02.159Z,98513.88
2023-05-10T20:40:29.557Z,98514.34
2023-05-10T20:42:56.938Z,98506.16
2023-05-10T20:45:25.191Z,98500.00
2023-05-10T20:47:53.751Z,98487.09
2023-05-10T20:50:21.327Z,98493.97
2023-05-10T20:52:51.094Z,98489.94
2023-05-10T20:55:19.867Z,98485.59
2023-05-10T20:57:47.588Z,98492.78
2023-05-10T21:00:16.246Z,98489.44
2023-05-10T21:02:46.192Z,98499.03
2023-05-10T21:05:13.749Z,98498.03
2023-05-10T21:07:41.315Z,98492.31
2023-05-10T21:10:11.466Z,98497.38
2023-05-10T21:12:38.917Z,98486.88
2023-05-10T21:15:08.236Z,98486.94
2023-05-10T21:17:35.862Z,98496.66
2023-05-10T21:20:03.814Z,98488.53
2023-05-10T21:22:31.312Z,98488.69
2023-05-10T21:24:58.707Z,98489.84
2023-05-10T21:27:26.137Z,98484.19
2023-05-10T21:29:53.749Z,98479.78
2023-05-10T21:32:21.203Z,98482.19
2023-05-10T21:34:48.656Z,98491.44
2023-05-10T21:37:17.625Z,98489.59
2023-05-10T21:39:45.231Z,98484.22
2023-05-10T21:42:12.662Z,98477.03
2023-05-10T21:44:40.032Z,98481.25
2023-05-10T21:47:07.520Z,98484.09
2023-05-10T21:49:35.115Z,98476.06
2023-05-10T21:52:02.634Z,98460.78
2023-05-10T21:54:30.026Z,98479.91
2023-05-10T21:56:57.953Z,98487.19
2023-05-10T21:59:25.352Z,98480.91
2023-05-10T22:01:52.731Z,98486.44
2023-05-10T22:04:20.112Z,98492.06
2023-05-10T22:06:47.959Z,98494.03
2023-05-10T22:09:15.339Z,98493.28
2023-05-10T22:11:42.715Z,98492.94
2023-05-10T22:14:10.121Z,98487.56
2023-05-10T22:16:37.721Z,98490.38
2023-05-10T22:19:05.316Z,98488.13
2023-05-10T22:21:32.762Z,98486.63
2023-05-10T22:24:00.171Z,98489.31
2023-05-10T22:26:27.556Z,98490.50
2023-05-10T22:28:54.963Z,98486.44
2023-05-10T22:31:22.654Z,98485.50
2023-05-10T22:33:50.198Z,98477.06
2023-05-10T22:36:17.603Z,98486.69
2023-05-10T22:38:45.024Z,98479.66
2023-05-10T22:41:12.470Z,98485.69
2023-05-10T22:43:39.912Z,98480.97
2023-05-10T22:46:07.402Z,98488.50
2023-05-10T22:48:35.634Z,98482.19
2023-05-10T22:51:03.082Z,98477.41
2023-05-10T22:53:30.528Z,98471.75
2023-05-10T22:55:58.024Z,98485.59
2023-05-10T22:58:25.871Z,98477.44
2023-05-10T23:00:55.310Z,98472.25
2023-05-10T23:03:26.811Z,98475.47
2023-05-10T23:05:54.200Z,98486.06
2023-05-10T23:08:22.477Z,98480.13
2023-05-10T23:10:49.910Z,98480.47
2023-05-10T23:13:18.900Z,98486.13
2023-05-10T23:15:46.358Z,98479.03
2023-05-10T23:18:13.858Z,98485.06
2023-05-10T23:20:45.589Z,98479.22
2023-05-10T23:23:13.030Z,98483.94
2023-05-10T23:25:40.444Z,98476.03
2023-05-10T23:28:07.825Z,98475.72
2023-05-10T23:30:35.214Z,98477.31
2023-05-10T23:33:03.220Z,98474.03
2023-05-10T23:35:31.403Z,98476.84
2023-05-10T23:37:58.791Z,98468.78
2023-05-10T23:40:26.632Z,98471.50
2023-05-10T23:42:54.069Z,98479.97
2023-05-10T23:45:21.523Z,98468.91
2023-05-10T23:47:48.972Z,98467.66
2023-05-10T23:50:17.015Z,98468.94
2023-05-10T23:52:44.693Z,98464.97
2023-05-10T23:55:12.298Z,98465.38
2023-05-10T23:57:39.701Z,98464.66
